createdAt,value
2022-12-13T00:01:46.364Z,-8.11
2022-12-13T00:04:15.645Z,-8.13
2022-12-13T00:06:43.976Z,-8.11
2022-12-13T00:09:13.906Z,-8.07
2022-12-13T00:11:41.611Z,-8.03
2022-12-13T00:14:10.407Z,-8.01
2022-12-13T00:16:39.454Z,-7.98
2022-12-13T00:19:08.080Z,-8.00
2022-12-13T00:21:35.775Z,-8.00
2022-12-13T00:24:08.578Z,-7.99
2022-12-13T00:26:36.349Z,-7.99
2022-12-13T00:29:07.405Z,-8.00
2022-12-13T00:31:59.506Z,-8.04
2022-12-13T00:34:26.149Z,-8.11
2022-12-13T00:36:54.795Z,-8.13
2022-12-13T00:39:23.079Z,-8.15
2022-12-13T00:41:51.049Z,-8.13
2022-12-13T00:44:20.414Z,-8.13
2022-12-13T00:46:48.069Z,-8.13
2022-12-13T00:49:15.759Z,-8.12
2022-12-13T00:51:44.900Z,-8.09
2022-12-13T00:54:12.826Z,-8.09
2022-12-13T00:56:40.462Z,-8.10
2022-12-13T00:59:09.018Z,-8.13
2022-12-13T01:01:37.761Z,-8.15
2022-12-13T01:04:08.358Z,-8.16
2022-12-13T01:06:39.599Z,-8.14
2022-12-13T01:09:15.370Z,-8.11
2022-12-13T01:11:43.086Z,-8.11
2022-12-13T01:14:11.163Z,-8.12
2022-12-13T01:16:39.598Z,-8.12
2022-12-13T01:19:07.994Z,-8.17
2022-12-13T01:21:35.693Z,-8.19
2022-12-13T01:24:05.498Z,-8.21
2022-12-13T01:26:35.204Z,-8.38
2022-12-13T01:29:05.564Z,-8.38
2022-12-13T01:31:33.486Z,-8.38
2022-12-13T01:34:10.593Z,-8.33
2022-12-13T01:36:39.042Z,-8.27
2022-12-13T01:39:07.820Z,-8.30
2022-12-13T01:41:46.938Z,-8.32
2022-12-13T01:44:53.165Z,-8.35
2022-12-13T01:47:25.814Z,-8.34
2022-12-13T01:49:57.594Z,-8.37
2022-12-13T01:52:29.442Z,-8.35
2022-12-13T01:55:15.470Z,-8.31
2022-12-13T01:57:48.716Z,-8.28
2022-12-13T02:00:17.825Z,-8.29
2022-12-13T02:02:46.814Z,-8.29
2022-12-13T02:05:19.827Z,-8.27
2022-12-13T02:07:48.696Z,-8.23
2022-12-13T02:10:16.795Z,-8.18
2022-12-13T02:12:45.929Z,-8.19
2022-12-13T02:15:17.118Z,-8.16
2022-12-13T02:18:07.982Z,-8.13
2022-12-13T02:20:51.286Z,-8.15
2022-12-13T02:23:38.595Z,-8.12
2022-12-13T02:26:34.599Z,-8.10
2022-12-13T02:29:30.760Z,-8.11
2022-12-13T02:32:05.191Z,-8.09
2022-12-13T02:34:39.791Z,-8.14
2022-12-13T02:37:17.917Z,-8.13
2022-12-13T02:39:52.570Z,-8.07
2022-12-13T02:42:25.319Z,-8.11
2022-12-13T02:44:58.592Z,-8.07
2022-12-13T02:47:29.831Z,-8.11
2022-12-13T02:50:03.243Z,-8.11
2022-12-13T02:52:32.856Z,-8.09
2022-12-13T02:55:01.362Z,-8.09
2022-12-13T02:57:34.727Z,-8.11
2022-12-13T03:00:06.283Z,-8.14
2022-12-13T03:02:47.069Z,-8.12
2022-12-13T03:05:44.294Z,-8.14
2022-12-13T03:08:21.754Z,-8.17
2022-12-13T03:10:58.076Z,-8.20
2022-12-13T03:13:39.099Z,-8.19
2022-12-13T03:16:19.461Z,-8.18
2022-12-13T03:18:54.236Z,-8.20
2022-12-13T03:21:23.277Z,-8.23
2022-12-13T03:23:50.929Z,-8.23
2022-12-13T03:26:22.908Z,-8.23
2022-12-13T03:28:51.545Z,-8.22
2022-12-13T03:31:20.722Z,-8.23
2022-12-13T03:33:48.431Z,-8.24
2022-12-13T03:36:20.060Z,-8.24
2022-12-13T03:38:52.253Z,-8.23
2022-12-13T03:41:23.692Z,-8.26
2022-12-13T03:43:51.676Z,-8.28
2022-12-13T03:46:19.703Z,-8.35
2022-12-13T03:48:47.770Z,-8.33
2022-12-13T03:51:17.761Z,-8.29
2022-12-13T03:53:45.499Z,-8.29
2022-12-13T03:56:13.734Z,-8.32
2022-12-13T03:58:43.147Z,-8.31
2022-12-13T04:01:13.662Z,-8.30
2022-12-13T04:03:42.788Z,-8.29
2022-12-13T04:06:11.619Z,-8.29
2022-12-13T04:08:41.465Z,-8.33
2022-12-13T04:11:27.665Z,-8.37
2022-12-13T04:13:56.112Z,-8.37
2022-12-13T04:16:25.550Z,-8.41
2022-12-13T04:18:53.565Z,-8.48
2022-12-13T04:21:21.548Z,-8.46
2022-12-13T04:23:50.597Z,-8.46
2022-12-13T04:26:18.268Z,-8.48
2022-12-13T04:28:50.906Z,-8.47
2022-12-13T04:31:22.619Z,-8.43
2022-12-13T04:33:50.361Z,-8.47
2022-12-13T04:36:32.309Z,-8.47
2022-12-13T04:39:02.624Z,-8.46
2022-12-13T04:41:34.367Z,-8.47
2022-12-13T04:44:03.233Z,-8.48
2022-12-13T04:46:31.499Z,-8.49
2022-12-13T04:48:59.172Z,-8.47
2022-12-13T04:51:27.240Z,-8.46
2022-12-13T04:53:55.026Z,-8.48
2022-12-13T04:56:24.495Z,-8.46
2022-12-13T04:58:52.300Z,-8.43
2022-12-13T05:01:20.306Z,-8.39
2022-12-13T05:03:48.570Z,-8.40
2022-12-13T05:06:27.041Z,-8.43
2022-12-13T05:09:00.878Z,-8.42
2022-12-13T05:11:35.611Z,-8.39
2022-12-13T05:14:04.430Z,-8.38
2022-12-13T05:16:32.131Z,-8.41
2022-12-13T05:19:00.916Z,-8.40
2022-12-13T05:21:29.751Z,-8.39
2022-12-13T05:23:57.751Z,-8.36
2022-12-13T05:26:25.383Z,-8.32
2022-12-13T05:28:57.024Z,-8.35
2022-12-13T05:31:25.143Z,-8.30
2022-12-13T05:33:53.937Z,-8.32
2022-12-13T05:36:25.225Z,-8.35
2022-12-13T05:38:54.414Z,-8.31
2022-12-13T05:41:25.264Z,-8.33
2022-12-13T05:43:54.967Z,-8.41
2022-12-13T05:46:22.615Z,-8.41
2022-12-13T05:48:51.083Z,-8.48
2022-12-13T05:51:18.782Z,-8.59
2022-12-13T05:53:51.563Z,-8.53
2022-12-13T05:56:22.378Z,-8.51
2022-12-13T05:58:53.627Z,-8.56
2022-12-13T06:01:24.259Z,-8.54
2022-12-13T06:03:52.540Z,-8.56
2022-12-13T06:06:21.149Z,-8.54
2022-12-13T06:08:49.013Z,-8.51
2022-12-13T06:11:21.586Z,-8.55
2022-12-13T06:14:01.457Z,-8.52
2022-12-13T06:16:31.200Z,-8.57
2022-12-13T06:19:04.118Z,-8.57
2022-12-13T06:21:43.805Z,-8.56
2022-12-13T06:24:17.488Z,-8.59
2022-12-13T06:26:46.164Z,-8.61
2022-12-13T06:29:23.475Z,-8.63
2022-12-13T06:32:02.342Z,-8.68
2022-12-13T06:34:32.379Z,-8.69
2022-12-13T06:37:01.235Z,-8.67
2022-12-13T06:39:32.808Z,-8.67
2022-12-13T06:42:02.506Z,-8.68
2022-12-13T06:44:30.622Z,-8.72
2022-12-13T06:47:10.694Z,-8.57
2022-12-13T06:49:43.230Z,-8.55
2022-12-13T06:52:12.993Z,-8.56
2022-12-13T06:54:41.438Z,-8.56
2022-12-13T06:57:09.333Z,-8.61
2022-12-13T06:59:37.511Z,-8.54
2022-12-13T07:02:24.832Z,-8.52
2022-12-13T07:04:56.501Z,-8.53
2022-12-13T07:07:25.565Z,-8.48
2022-12-13T07:09:54.571Z,-8.41
2022-12-13T07:12:22.641Z,-8.42
2022-12-13T07:14:50.684Z,-8.39
2022-12-13T07:17:31.870Z,-8.34
2022-12-13T07:20:03.866Z,-8.19
2022-12-13T07:22:35.271Z,-8.14
2022-12-13T07:25:06.114Z,-8.13
2022-12-13T07:27:34.356Z,-8.12
2022-12-13T07:30:02.978Z,-8.08
2022-12-13T07:32:32.015Z,-8.06
2022-12-13T07:35:00.304Z,-8.11
2022-12-13T07:37:30.410Z,-8.10
2022-12-13T07:40:03.837Z,-8.06
2022-12-13T07:42:31.905Z,-7.99
2022-12-13T07:45:00.225Z,-7.94
2022-12-13T07:47:30.535Z,-7.90
2022-12-13T07:50:01.685Z,-7.81
2022-12-13T07:52:29.565Z,-7.78
2022-12-13T07:54:57.217Z,-7.66
2022-12-13T07:57:24.873Z,-7.62
2022-12-13T07:59:53.403Z,-7.57
2022-12-13T08:02:21.006Z,-7.36
2022-12-13T08:04:54.633Z,-7.22
2022-12-13T08:07:24.352Z,-7.06
2022-12-13T08:09:53.277Z,-7.06
2022-12-13T08:12:22.684Z,-7.09
2022-12-13T08:14:53.172Z,-7.12
2022-12-13T08:17:21.540Z,-7.00
2022-12-13T08:19:49.178Z,-6.93
2022-12-13T08:22:23.740Z,-6.90
2022-12-13T08:24:54.143Z,-6.89
2022-12-13T08:27:21.908Z,-6.87
2022-12-13T08:29:50.312Z,-6.79
2022-12-13T08:32:18.270Z,-6.66
2022-12-13T08:34:46.924Z,-6.52
2022-12-13T08:37:14.623Z,-6.37
2022-12-13T08:39:42.838Z,-6.20
2022-12-13T08:42:18.276Z,-5.68
2022-12-13T08:44:48.977Z,-5.31
2022-12-13T08:47:23.006Z,-4.88
2022-12-13T08:49:54.283Z,-4.23
2022-12-13T08:52:23.345Z,-3.74
2022-12-13T08:54:52.149Z,-3.45
2022-12-13T08:57:21.468Z,-3.25
2022-12-13T08:59:49.461Z,-2.99
2022-12-13T09:02:17.528Z,-2.67
2022-12-13T09:04:45.460Z,-2.43
2022-12-13T09:07:13.864Z,-2.39
2022-12-13T09:09:41.567Z,-2.57
2022-12-13T09:12:10.949Z,-2.66
2022-12-13T09:15:00.929Z,-2.76
2022-12-13T09:17:36.742Z,-2.66
2022-12-13T09:20:10.144Z,-2.69
2022-12-13T09:23:01.326Z,-2.87
2022-12-13T09:25:37.084Z,-2.77
2022-12-13T09:28:07.904Z,-2.83
2022-12-13T09:30:37.508Z,-2.21
2022-12-13T09:33:28.186Z,-1.51
2022-12-13T09:35:53.834Z,-1.73
2022-12-13T09:38:21.606Z,-1.41
2022-12-13T09:40:58.387Z,-2.05
2022-12-13T09:43:32.444Z,-2.10
2022-12-13T09:46:13.207Z,-2.07
2022-12-13T09:49:01.806Z,-2.14
2022-12-13T09:51:39.630Z,-2.43
2022-12-13T09:54:19.526Z,-2.50
2022-12-13T09:56:51.056Z,-2.69
2022-12-13T09:59:22.492Z,-2.53
2022-12-13T10:01:52.044Z,-2.67
2022-12-13T10:04:20.038Z,-2.14
2022-12-13T10:06:48.128Z,-1.94
2022-12-13T10:09:15.967Z,-1.90
2022-12-13T10:11:51.722Z,-1.50
2022-12-13T10:14:26.389Z,-1.28
2022-12-13T10:16:59.226Z,-1.24
2022-12-13T10:19:34.365Z,-1.13
2022-12-13T10:22:04.803Z,-1.29
2022-12-13T10:24:50.096Z,-1.29
2022-12-13T10:27:19.547Z,-1.33
2022-12-13T10:30:07.810Z,-1.51
2022-12-13T10:32:49.531Z,-1.56
2022-12-13T10:35:24.415Z,-1.31
2022-12-13T10:37:53.375Z,-0.77
2022-12-13T10:40:33.291Z,-0.18
2022-12-13T10:43:13.149Z,0.21
2022-12-13T10:45:41.482Z,1.06
2022-12-13T10:48:21.063Z,1.33
2022-12-13T10:50:59.984Z,1.47
2022-12-13T10:53:32.272Z,1.60
2022-12-13T10:56:02.462Z,2.33
2022-12-13T10:58:39.782Z,2.54
2022-12-13T11:01:22.722Z,2.30
2022-12-13T11:04:02.883Z,2.22
2022-12-13T11:06:43.429Z,2.34
2022-12-13T11:09:22.838Z,2.23
2022-12-13T11:11:58.073Z,2.71
2022-12-13T11:14:31.907Z,2.43
2022-12-13T11:17:08.133Z,2.17
2022-12-13T11:19:41.701Z,2.12
2022-12-13T11:22:10.942Z,1.74
2022-12-13T11:24:42.194Z,2.13
2022-12-13T11:27:35.628Z,1.92
2022-12-13T11:30:20.972Z,1.83
2022-12-13T11:33:05.097Z,2.70
2022-12-13T11:35:43.684Z,3.27
2022-12-13T11:38:26.667Z,3.59
2022-12-13T11:40:59.853Z,4.52
2022-12-13T11:43:34.791Z,4.83
2022-12-13T11:46:14.588Z,4.63
2022-12-13T11:48:47.960Z,4.12
2022-12-13T11:51:25.934Z,4.01
2022-12-13T11:54:00.370Z,3.37
2022-12-13T11:56:32.379Z,2.96
2022-12-13T11:59:19.045Z,2.53
2022-12-13T12:01:54.601Z,2.44
2022-12-13T12:04:30.327Z,2.08
2022-12-13T12:07:30.586Z,1.71
2022-12-13T12:09:58.647Z,1.60
2022-12-13T12:12:33.662Z,1.60
2022-12-13T12:15:15.706Z,1.39
2022-12-13T12:17:45.251Z,1.34
2022-12-13T12:20:23.861Z,1.06
2022-12-13T12:23:03.507Z,0.51
2022-12-13T12:25:44.813Z,0.59
2022-12-13T12:28:26.865Z,0.34
2022-12-13T12:31:03.979Z,-0.07
2022-12-13T12:33:43.700Z,-0.15
2022-12-13T12:36:25.495Z,-0.28
2022-12-13T12:39:19.911Z,-0.45
2022-12-13T12:42:00.299Z,-0.84
2022-12-13T12:44:39.665Z,-0.97
2022-12-13T12:50:38.260Z,-1.07
2022-12-13T12:53:27.908Z,-1.18
2022-12-13T12:56:10.304Z,-1.27
2022-12-13T12:58:47.411Z,-1.34
2022-12-13T13:01:26.589Z,-1.40
2022-12-13T13:04:01.609Z,-1.53
2022-12-13T13:06:34.549Z,-1.49
2022-12-13T13:09:06.209Z,-1.65
2022-12-13T13:11:43.146Z,-1.50
2022-12-13T13:14:28.398Z,-1.71
2022-12-13T13:16:56.812Z,-1.62
2022-12-13T13:19:43.396Z,-1.64
2022-12-13T13:22:32.246Z,-1.70
2022-12-13T13:25:28.592Z,-1.63
2022-12-13T13:28:07.253Z,-1.67
2022-12-13T13:30:36.824Z,-1.71
2022-12-13T13:33:04.601Z,-1.70
2022-12-13T13:35:53.673Z,-1.53
2022-12-13T13:38:55.733Z,-1.56
2022-12-13T13:42:07.864Z,-1.85
2022-12-13T13:45:03.488Z,-1.97
2022-12-13T13:47:40.215Z,-1.85
2022-12-13T13:50:41.971Z,-1.95
2022-12-13T13:53:43.964Z,-2.08
2022-12-13T13:56:24.140Z,-2.05
2022-12-13T13:59:24.908Z,-2.10
2022-12-13T14:02:11.240Z,-2.31
2022-12-13T14:05:12.185Z,-2.32
2022-12-13T14:08:20.739Z,-2.47
2022-12-13T14:11:10.338Z,-2.51
2022-12-13T14:14:22.119Z,-2.52
2022-12-13T14:17:23.525Z,-2.54
2022-12-13T14:20:18.355Z,-2.58
2022-12-13T14:22:50.800Z,-2.75
2022-12-13T14:25:29.711Z,-2.77
2022-12-13T14:28:03.806Z,-2.78
2022-12-13T14:30:33.732Z,-2.76
2022-12-13T14:33:02.719Z,-2.78
2022-12-13T14:35:32.850Z,-2.82
2022-12-13T14:38:02.482Z,-2.80
2022-12-13T14:40:33.099Z,-2.85
2022-12-13T14:43:01.451Z,-2.83
2022-12-13T14:45:31.770Z,-2.91
2022-12-13T14:48:04.437Z,-2.90
2022-12-13T14:50:36.375Z,-2.90
2022-12-13T14:53:06.319Z,-2.94
2022-12-13T14:55:37.521Z,-2.99
2022-12-13T14:58:17.931Z,-3.05
2022-12-13T15:00:47.043Z,-3.09
2022-12-13T15:03:25.124Z,-3.11
2022-12-13T15:05:55.806Z,-3.25
2022-12-13T15:08:24.237Z,-3.31
2022-12-13T15:10:54.733Z,-3.41
2022-12-13T15:13:29.925Z,-3.57
2022-12-13T15:16:01.923Z,-3.63
2022-12-13T15:18:41.282Z,-3.78
2022-12-13T15:21:23.573Z,-3.74
2022-12-13T15:23:55.998Z,-3.83
2022-12-13T15:26:34.722Z,-3.91
2022-12-13T15:29:10.060Z,-4.01
2022-12-13T15:31:40.470Z,-3.98
2022-12-13T15:34:39.978Z,-4.07
2022-12-13T15:37:29.451Z,-4.12
2022-12-13T15:40:01.906Z,-4.14
2022-12-13T15:42:33.180Z,-4.23
2022-12-13T15:45:03.777Z,-4.27
2022-12-13T15:47:31.904Z,-4.27
2022-12-13T15:50:03.163Z,-4.31
2022-12-13T15:52:35.442Z,-4.33
2022-12-13T15:55:19.831Z,-4.35
2022-12-13T15:57:51.887Z,-4.34
2022-12-13T16:00:30.252Z,-4.33
2022-12-13T16:03:08.661Z,-4.37
2022-12-13T16:05:42.743Z,-4.32
2022-12-13T16:08:25.382Z,-4.28
2022-12-13T16:10:54.778Z,-4.28
2022-12-13T16:13:27.341Z,-4.31
2022-12-13T16:16:00.121Z,-4.36
2022-12-13T16:18:44.072Z,-4.42
2022-12-13T16:21:14.615Z,-4.46
2022-12-13T16:23:47.935Z,-4.45
2022-12-13T16:26:22.673Z,-4.55
2022-12-13T16:28:50.533Z,-4.55
2022-12-13T16:31:22.301Z,-4.56
2022-12-13T16:33:50.400Z,-4.60
2022-12-13T16:36:19.424Z,-4.58
2022-12-13T16:38:47.429Z,-4.52
2022-12-13T16:41:16.375Z,-4.55
2022-12-13T16:43:53.542Z,-4.60
2022-12-13T16:47:18.215Z,-4.57
2022-12-13T16:49:19.411Z,-4.56
2022-12-13T16:51:49.214Z,-4.56
2022-12-13T16:54:17.970Z,-4.60
2022-12-13T16:56:46.149Z,-4.62
2022-12-13T16:59:15.572Z,-4.63
2022-12-13T17:01:44.227Z,-4.62
2022-12-13T17:04:19.214Z,-4.66
2022-12-13T17:06:49.807Z,-4.65
2022-12-13T17:09:17.652Z,-4.65
2022-12-13T17:11:45.352Z,-4.72
2022-12-13T17:14:13.029Z,-4.74
2022-12-13T17:16:40.754Z,-4.72
2022-12-13T17:19:08.400Z,-4.73
2022-12-13T17:21:36.236Z,-4.73
2022-12-13T17:24:05.754Z,-4.80
2022-12-13T17:26:34.816Z,-4.84
2022-12-13T17:29:02.469Z,-4.82
2022-12-13T17:31:35.221Z,-4.83
2022-12-13T17:34:04.000Z,-4.84
2022-12-13T17:36:32.150Z,-4.87
2022-12-13T17:39:00.579Z,-4.90
2022-12-13T17:41:29.581Z,-4.92
2022-12-13T17:44:00.045Z,-4.91
2022-12-13T17:46:27.818Z,-4.92
2022-12-13T17:48:56.039Z,-4.96
2022-12-13T17:51:23.744Z,-5.04
2022-12-13T17:53:51.740Z,-5.10
2022-12-13T17:56:19.689Z,-5.19
2022-12-13T17:58:48.737Z,-5.20
2022-12-13T18:01:19.108Z,-5.23
2022-12-13T18:03:48.777Z,-5.24
2022-12-13T18:06:16.888Z,-5.24
2022-12-13T18:08:47.080Z,-5.24
2022-12-13T18:11:33.802Z,-5.22
2022-12-13T18:14:05.373Z,-5.13
2022-12-13T18:16:37.346Z,-5.11
2022-12-13T18:19:07.480Z,-5.04
2022-12-13T18:21:36.882Z,-5.04
2022-12-13T18:24:05.813Z,-5.04
2022-12-13T18:26:34.186Z,-5.10
2022-12-13T18:29:02.157Z,-5.08
2022-12-13T18:31:31.242Z,-5.00
2022-12-13T18:33:59.667Z,-5.05
2022-12-13T18:36:27.824Z,-5.08
2022-12-13T18:38:56.919Z,-5.06
2022-12-13T18:41:28.018Z,-5.03
2022-12-13T18:43:59.561Z,-4.96
2022-12-13T18:46:28.295Z,-4.89
2022-12-13T18:48:57.962Z,-4.86
2022-12-13T18:51:26.626Z,-4.87
2022-12-13T18:53:56.417Z,-4.89
2022-12-13T18:56:25.720Z,-4.90
2022-12-13T18:58:54.090Z,-4.87
2022-12-13T19:01:22.819Z,-4.87
2022-12-13T19:03:51.124Z,-4.87
2022-12-13T19:06:22.056Z,-4.88
2022-12-13T19:08:51.724Z,-4.94
2022-12-13T19:11:20.160Z,-4.89
2022-12-13T19:13:48.273Z,-4.84
2022-12-13T19:16:18.112Z,-4.84
2022-12-13T19:18:46.107Z,-4.82
2022-12-13T19:21:16.617Z,-4.78
2022-12-13T19:23:51.314Z,-4.73
2022-12-13T19:26:23.864Z,-4.69
2022-12-13T19:28:52.082Z,-4.66
2022-12-13T19:31:19.779Z,-4.67
2022-12-13T19:33:48.043Z,-4.66
2022-12-13T19:36:16.392Z,-4.74
2022-12-13T19:38:45.731Z,-4.72
2022-12-13T19:41:15.080Z,-4.72
2022-12-13T19:43:50.678Z,-4.68
2022-12-13T19:46:20.786Z,-4.65
2022-12-13T19:48:48.675Z,-4.68
2022-12-13T19:51:16.390Z,-4.67
2022-12-13T19:53:45.749Z,-4.68
2022-12-13T19:56:15.983Z,-4.65
2022-12-13T19:58:43.735Z,-4.65
2022-12-13T20:01:12.140Z,-4.59
2022-12-13T20:03:42.109Z,-4.60
2022-12-13T20:06:14.635Z,-4.56
2022-12-13T20:08:42.441Z,-4.55
2022-12-13T20:11:14.244Z,-4.48
2022-12-13T20:13:42.480Z,-4.50
2022-12-13T20:16:16.664Z,-4.45
2022-12-13T20:18:44.740Z,-4.44
2022-12-13T20:21:14.583Z,-4.44
2022-12-13T20:23:44.901Z,-4.48
2022-12-13T20:26:21.053Z,-4.50
2022-12-13T20:28:49.731Z,-4.46
2022-12-13T20:31:19.181Z,-4.45
2022-12-13T20:33:48.056Z,-4.42
2022-12-13T20:36:25.885Z,-4.39
2022-12-13T20:38:56.423Z,-4.40
2022-12-13T20:41:26.972Z,-4.35
2022-12-13T20:43:56.976Z,-4.32
2022-12-13T20:46:25.932Z,-4.30
2022-12-13T20:48:55.140Z,-4.26
2022-12-13T20:51:25.497Z,-4.27
2022-12-13T20:53:54.064Z,-4.24
2022-12-13T20:56:23.546Z,-4.15
2022-12-13T20:58:52.970Z,-4.16
2022-12-13T21:01:22.022Z,-3.90
2022-12-13T21:03:50.438Z,-3.85
2022-12-13T21:06:18.206Z,-3.85
2022-12-13T21:08:52.060Z,-3.82
2022-12-13T21:11:27.050Z,-3.85
2022-12-13T21:14:02.455Z,-3.83
2022-12-13T21:16:37.998Z,-3.83
2022-12-13T21:19:06.802Z,-4.05
2022-12-13T21:21:34.754Z,-4.04
2022-12-13T21:24:03.232Z,-4.10
2022-12-13T21:26:35.661Z,-4.03
2022-12-13T21:29:07.401Z,-4.00
2022-12-13T21:31:37.067Z,-3.99
2022-12-13T21:34:06.832Z,-3.95
2022-12-13T21:36:36.581Z,-3.99
2022-12-13T21:39:06.631Z,-4.07
2022-12-13T21:41:34.545Z,-4.10
2022-12-13T21:44:02.184Z,-4.07
2022-12-13T21:47:11.436Z,-4.01
2022-12-13T21:49:20.722Z,-4.09
2022-12-13T21:51:48.799Z,-4.08
2022-12-13T21:54:18.371Z,-3.98
2022-12-13T21:57:03.796Z,-4.01
2022-12-13T21:59:31.770Z,-3.98
2022-12-13T22:02:15.980Z,-3.98
2022-12-13T22:04:46.258Z,-3.98
2022-12-13T22:07:16.092Z,-3.98
2022-12-13T22:09:45.057Z,-3.97
2022-12-13T22:12:20.159Z,-3.91
2022-12-13T22:14:48.156Z,-3.92
2022-12-13T22:17:18.434Z,-3.92
2022-12-13T22:19:48.486Z,-3.86
2022-12-13T22:22:17.211Z,-3.82
2022-12-13T22:24:49.876Z,-3.95
2022-12-13T22:27:23.507Z,-3.87
2022-12-13T22:29:52.024Z,-3.92
2022-12-13T22:32:21.250Z,-3.89
2022-12-13T22:34:49.473Z,-3.90
2022-12-13T22:37:17.845Z,-3.99
2022-12-13T22:39:45.591Z,-3.93
2022-12-13T22:42:13.781Z,-3.82
2022-12-13T22:44:41.430Z,-3.81
2022-12-13T22:47:09.443Z,-3.77
2022-12-13T22:49:39.928Z,-3.72
2022-12-13T22:52:08.472Z,-3.72
2022-12-13T22:54:36.165Z,-3.69
2022-12-13T22:57:04.263Z,-3.71
2022-12-13T22:59:32.903Z,-3.70
2022-12-13T23:02:02.983Z,-3.73
2022-12-13T23:04:33.237Z,-3.69
2022-12-13T23:07:02.585Z,-3.67
2022-12-13T23:09:31.359Z,-3.68
2022-12-13T23:12:17.037Z,-3.64
2022-12-13T23:14:44.821Z,-3.66
2022-12-13T23:17:13.351Z,-3.67
2022-12-13T23:19:51.567Z,-3.67
2022-12-13T23:22:26.186Z,-3.63
2022-12-13T23:24:54.243Z,-3.65
2022-12-13T23:27:24.168Z,-3.66
2022-12-13T23:29:51.921Z,-3.57
2022-12-13T23:32:20.432Z,-3.57
2022-12-13T23:34:48.100Z,-3.56
2022-12-13T23:37:16.340Z,-3.60
2022-12-13T23:39:45.333Z,-3.52
2022-12-13T23:42:13.308Z,-3.52
2022-12-13T23:44:40.973Z,-3.52
2022-12-13T23:47:08.859Z,-3.48
2022-12-13T23:49:36.510Z,-3.53
2022-12-13T23:52:04.246Z,-3.51
2022-12-13T23:54:31.896Z,-3.48
2022-12-13T23:57:01.629Z,-3.51
2022-12-13T23:59:29.471Z,-3.48
